Time;durP1;ratioP1;P1;durP2;ratioP2;P2;SDS_P1;SDS_P2;PMS_P1;PMS_P2;Temp;Humidity;BMP_temperature;BMP_pressure;BME280_temperature;BME280_humidity;BME280_pressure;Samples;Min_cycle;Max_cycle;Signal;HPM_P1;HPM_P2
2023/01/25 00:00:08;;;;;;;51.65;25.50;;;2.70;99.90;;;;;;2042673;29;20031;-75
2023/01/25 00:01:08;;;;;;;44.33;23.42;;;2.70;99.90;;;;;;2037776;28;20028;-75
2023/01/25 00:02:09;;;;;;;45.95;23.92;;;2.80;99.90;;;;;;2044525;28;20030;-77
2023/01/25 00:03:09;;;;;;;46.95;23.85;;;2.80;99.90;;;;;;2042480;28;20054;-75
2023/01/25 00:04:11;;;;;;;45.97;23.55;;;2.80;99.90;;;;;;2042361;29;20438;-77
2023/01/25 00:05:12;;;;;;;48.28;24.77;;;2.80;99.90;;;;;;2042525;29;20075;-77
2023/01/25 00:06:12;;;;;;;45.88;23.75;;;2.80;99.90;;;;;;2042332;29;20064;-75
2023/01/25 00:07:13;;;;;;;47.88;23.75;;;2.80;99.90;;;;;;2032982;29;20019;-75
2023/01/25 00:08:13;;;;;;;44.50;23.73;;;2.80;99.90;;;;;;2032408;29;20118;-77
2023/01/25 00:09:15;;;;;;;45.92;24.48;;;2.80;99.90;;;;;;2042562;29;20037;-76
2023/01/25 00:10:15;;;;;;;49.20;24.08;;;2.80;99.90;;;;;;2033657;29;20028;-76
2023/01/25 00:11:16;;;;;;;48.63;25.02;;;2.80;99.90;;;;;;2033619;29;20160;-76
2023/01/25 00:12:17;;;;;;;45.85;24.30;;;2.80;99.90;;;;;;2044255;28;20027;-76
2023/01/25 00:13:18;;;;;;;45.78;23.85;;;2.80;99.90;;;;;;2042425;29;20517;-76
2023/01/25 00:14:18;;;;;;;43.10;23.13;;;2.80;99.90;;;;;;2042331;29;20087;-75
2023/01/25 00:15:19;;;;;;;44.92;23.67;;;2.80;99.90;;;;;;2042465;28;20321;-76
2023/01/25 00:16:20;;;;;;;47.42;23.55;;;2.80;99.90;;;;;;2042616;28;20054;-76
2023/01/25 00:17:21;;;;;;;47.10;23.85;;;2.80;99.90;;;;;;2044242;29;20046;-76
2023/01/25 00:18:21;;;;;;;46.33;23.40;;;2.80;99.90;;;;;;2033898;29;20031;-76
2023/01/25 00:19:22;;;;;;;50.92;24.50;;;2.80;99.90;;;;;;2029394;29;20560;-75
2023/01/25 00:20:23;;;;;;;47.67;24.08;;;2.80;99.90;;;;;;2041759;28;20063;-75
2023/01/25 00:21:25;;;;;;;46.15;24.65;;;2.80;99.90;;;;;;2037013;29;20055;-75
2023/01/25 00:22:26;;;;;;;46.95;24.88;;;2.80;99.90;;;;;;2031039;29;20067;-76
2023/01/25 00:23:26;;;;;;;45.65;24.98;;;2.70;99.90;;;;;;2041650;29;20031;-76
2023/01/25 00:24:27;;;;;;;45.03;23.50;;;2.70;99.90;;;;;;2032842;29;20035;-75
2023/01/25 00:25:27;;;;;;;46.45;24.38;;;2.70;99.90;;;;;;2031047;29;20043;-75
2023/01/25 00:26:34;;;;;;;49.92;24.17;;;2.70;99.90;;;;;;2042618;28;20035;-74
2023/01/25 00:27:35;;;;;;;47.38;24.50;;;2.70;99.90;;;;;;2044343;29;20031;-75
2023/01/25 00:28:35;;;;;;;45.00;24.02;;;2.70;99.90;;;;;;2029281;29;20122;-76
2023/01/25 00:29:36;;;;;;;44.95;24.45;;;2.70;99.90;;;;;;2033867;29;20036;-76
2023/01/25 00:30:37;;;;;;;46.03;23.95;;;2.70;99.90;;;;;;2041325;28;20031;-77
2023/01/25 00:31:55;;;;;;;45.50;23.73;;;2.70;99.90;;;;;;2043290;28;20066;-75
2023/01/25 00:33:05;;;;;;;45.35;24.10;;;2.70;99.90;;;;;;2041598;28;20079;-75
2023/01/25 00:34:06;;;;;;;47.15;24.20;;;2.70;99.90;;;;;;2029229;29;20123;-77
2023/01/25 00:35:11;;;;;;;47.00;24.50;;;2.70;99.90;;;;;;2036052;29;20031;-75
2023/01/25 00:36:29;;;;;;;43.58;23.85;;;2.70;99.90;;;;;;2032373;29;20036;-75
2023/01/25 00:37:40;;;;;;;46.58;23.75;;;2.70;99.90;;;;;;2042279;28;20043;-75
2023/01/25 00:38:42;;;;;;;46.63;24.13;;;2.70;99.90;;;;;;2029714;29;20519;-78
2023/01/25 00:39:43;;;;;;;46.60;23.77;;;2.70;99.90;;;;;;2036108;29;20670;-78
2023/01/25 00:40:48;;;;;;;46.42;24.55;;;2.70;99.90;;;;;;2042234;29;20023;-79
2023/01/25 00:41:48;;;;;;;48.72;24.33;;;2.70;99.90;;;;;;2042138;28;20850;-78
2023/01/25 00:42:49;;;;;;;45.05;23.08;;;2.70;99.90;;;;;;2042447;28;20069;-80
2023/01/25 00:43:49;;;;;;;45.25;24.20;;;2.60;99.90;;;;;;2042394;29;20027;-80
2023/01/25 00:44:50;;;;;;;45.42;23.60;;;2.60;99.90;;;;;;2044447;29;20027;-79
2023/01/25 00:45:51;;;;;;;46.88;23.95;;;2.70;99.90;;;;;;2042259;28;20062;-79
2023/01/25 00:46:52;;;;;;;46.58;23.13;;;2.70;99.90;;;;;;2029177;29;20056;-78
2023/01/25 00:47:55;;;;;;;47.58;24.45;;;2.70;99.90;;;;;;2029537;29;20032;-80
2023/01/25 00:48:56;;;;;;;45.20;22.92;;;2.70;99.90;;;;;;2031417;29;20020;-79
2023/01/25 00:49:57;;;;;;;42.85;22.95;;;2.70;99.90;;;;;;2033755;29;20430;-78
2023/01/25 00:51:00;;;;;;;45.88;24.65;;;2.70;99.90;;;;;;2039288;28;20031;-77
2023/01/25 00:52:01;;;;;;;46.45;23.77;;;2.70;99.90;;;;;;2040195;28;20361;-78
2023/01/25 00:53:02;;;;;;;49.05;25.27;;;2.80;99.90;;;;;;2042244;29;20728;-79
2023/01/25 00:54:03;;;;;;;48.55;24.88;;;2.80;99.90;;;;;;2043429;29;20055;-78
2023/01/25 00:55:04;;;;;;;46.08;24.63;;;2.80;99.90;;;;;;2035676;29;20465;-78
2023/01/25 00:56:04;;;;;;;48.63;24.83;;;2.70;99.90;;;;;;2030501;29;20239;-78
2023/01/25 00:57:06;;;;;;;46.10;23.73;;;2.80;99.90;;;;;;2029629;29;20085;-80
2023/01/25 00:58:07;;;;;;;44.47;23.48;;;2.80;99.90;;;;;;2029687;29;20161;-80
2023/01/25 00:59:12;;;;;;;48.00;24.23;;;2.80;99.90;;;;;;2032058;29;20523;-79
2023/01/25 01:00:14;;;;;;;45.53;23.95;;;2.70;99.90;;;;;;2036909;29;20034;-78
2023/01/25 01:01:15;;;;;;;45.45;24.50;;;2.70;99.90;;;;;;2027974;29;20424;-78
2023/01/25 01:02:15;;;;;;;45.22;24.52;;;2.70;99.90;;;;;;2036323;29;20047;-78
2023/01/25 01:03:16;;;;;;;46.45;24.35;;;2.70;99.90;;;;;;2043742;29;20129;-77
2023/01/25 01:04:19;;;;;;;45.80;23.85;;;2.70;99.90;;;;;;2047486;28;20027;-78
2023/01/25 01:05:20;;;;;;;46.40;23.60;;;2.70;99.90;;;;;;2045593;29;20063;-80
2023/01/25 01:06:20;;;;;;;43.70;22.80;;;2.70;99.90;;;;;;2041901;29;20100;-79
2023/01/25 01:07:21;;;;;;;44.95;23.50;;;2.70;99.90;;;;;;2046060;29;20042;-78
2023/01/25 01:08:21;;;;;;;45.40;23.25;;;2.70;99.90;;;;;;2040492;28;20660;-80
2023/01/25 01:09:23;;;;;;;44.72;23.08;;;2.70;99.90;;;;;;2047398;29;20114;-79
2023/01/25 01:10:26;;;;;;;43.47;23.02;;;2.70;99.90;;;;;;2034733;29;20035;-78
2023/01/25 01:11:26;;;;;;;43.17;22.65;;;2.70;99.90;;;;;;2036832;29;20118;-79
2023/01/25 01:12:27;;;;;;;43.63;22.88;;;2.60;99.90;;;;;;2044539;29;20027;-80
2023/01/25 01:13:28;;;;;;;40.85;22.40;;;2.60;99.90;;;;;;2035593;29;20114;-80
2023/01/25 01:14:29;;;;;;;39.97;21.55;;;2.60;99.90;;;;;;2044213;29;20262;-77
2023/01/25 01:15:29;;;;;;;40.65;22.20;;;2.60;99.90;;;;;;2041233;29;20028;-77
2023/01/25 01:16:30;;;;;;;41.88;22.48;;;2.60;99.90;;;;;;2043101;29;20150;-77
2023/01/25 01:17:31;;;;;;;37.60;20.92;;;2.50;99.90;;;;;;2043442;28;20046;-77
2023/01/25 01:18:36;;;;;;;39.22;20.98;;;2.50;99.90;;;;;;2042495;28;20139;-78
2023/01/25 01:19:37;;;;;;;42.55;23.10;;;2.50;99.90;;;;;;2041870;29;20031;-78
2023/01/25 01:20:37;;;;;;;45.45;23.35;;;2.50;99.90;;;;;;2043808;28;20125;-80
2023/01/25 01:21:38;;;;;;;41.40;22.00;;;2.50;99.90;;;;;;2041616;29;20035;-79
2023/01/25 01:22:38;;;;;;;39.33;21.63;;;2.50;99.90;;;;;;2040509;29;20110;-79
2023/01/25 01:23:40;;;;;;;38.38;20.30;;;2.60;99.90;;;;;;2038875;28;20541;-80
2023/01/25 01:24:41;;;;;;;38.85;20.23;;;2.60;99.90;;;;;;2039907;28;20031;-79
2023/01/25 01:25:42;;;;;;;35.75;19.98;;;2.60;99.90;;;;;;2037376;28;20031;-80
2023/01/25 01:26:43;;;;;;;36.95;19.85;;;2.60;99.90;;;;;;2034170;29;20036;-79
2023/01/25 01:27:43;;;;;;;35.92;19.33;;;2.60;99.90;;;;;;2034028;29;20430;-79
2023/01/25 01:28:44;;;;;;;35.38;18.73;;;2.60;99.90;;;;;;2043544;29;20023;-80
2023/01/25 01:29:45;;;;;;;34.28;18.85;;;2.60;99.90;;;;;;2043531;28;20558;-79
2023/01/25 01:30:45;;;;;;;36.53;19.52;;;2.60;99.90;;;;;;2041949;29;20203;-78
2023/01/25 01:31:50;;;;;;;36.22;19.33;;;2.60;99.90;;;;;;2034126;29;20403;-78
2023/01/25 01:32:55;;;;;;;36.10;19.17;;;2.60;99.90;;;;;;2035181;29;20715;-78
2023/01/25 01:33:57;;;;;;;35.65;19.35;;;2.60;99.90;;;;;;2041579;28;20062;-78
2023/01/25 01:34:57;;;;;;;34.72;19.20;;;2.60;99.90;;;;;;2042729;28;20454;-79
2023/01/25 01:35:58;;;;;;;36.03;19.38;;;2.60;99.90;;;;;;2036205;29;20035;-78
2023/01/25 01:36:59;;;;;;;35.50;19.15;;;2.60;99.90;;;;;;2034392;29;20024;-79
2023/01/25 01:38:00;;;;;;;39.05;20.73;;;2.60;99.90;;;;;;2029852;29;20032;-79
2023/01/25 01:39:00;;;;;;;36.30;19.80;;;2.60;99.90;;;;;;2033861;29;20106;-79
2023/01/25 01:40:01;;;;;;;35.90;19.30;;;2.60;99.90;;;;;;2040187;29;20180;-79
2023/01/25 01:41:02;;;;;;;35.20;19.27;;;2.60;99.90;;;;;;2041587;29;20039;-79
2023/01/25 01:42:03;;;;;;;37.47;20.27;;;2.60;99.90;;;;;;2041750;28;20050;-79
2023/01/25 01:43:14;;;;;;;34.78;19.60;;;2.70;99.90;;;;;;2033494;29;20111;-79
2023/01/25 01:44:18;;;;;;;35.90;20.15;;;2.60;99.90;;;;;;2035929;29;20051;-78
2023/01/25 01:46:04;;;;;;;35.20;19.10;;;2.60;99.90;;;;;;2039953;28;20058;-79
2023/01/25 01:47:14;;;;;;;36.55;19.10;;;2.60;99.90;;;;;;2023406;29;20091;-80
2023/01/25 01:48:51;;;;;;;34.53;19.00;;;2.60;99.90;;;;;;2025320;29;20071;-79
2023/01/25 01:49:58;;;;;;;36.03;18.83;;;2.60;99.90;;;;;;2028723;29;20073;-79
2023/01/25 01:51:10;;;;;;;33.72;18.88;;;2.60;99.90;;;;;;2027754;29;20457;-78
2023/01/25 01:52:16;;;;;;;32.63;18.65;;;2.60;99.90;;;;;;2014380;29;20492;-78
2023/01/25 01:53:19;;;;;;;32.90;18.38;;;2.60;99.90;;;;;;2035627;29;20043;-77
2023/01/25 01:54:37;;;;;;;32.88;18.42;;;2.60;99.90;;;;;;2030900;29;20046;-77
2023/01/25 01:55:39;;;;;;;29.98;16.77;;;2.60;99.90;;;;;;2037123;28;20052;-79
2023/01/25 01:56:57;;;;;;;30.25;16.95;;;2.60;99.90;;;;;;2035043;29;20326;-76
2023/01/25 01:57:58;;;;;;;35.00;17.58;;;2.50;99.90;;;;;;2036813;29;20102;-78
2023/01/25 01:59:00;;;;;;;34.47;17.92;;;2.50;99.90;;;;;;2042154;29;20134;-78
2023/01/25 02:00:24;;;;;;;32.40;18.00;;;2.50;99.90;;;;;;2036522;29;20290;-77
2023/01/25 02:01:24;;;;;;;34.13;18.95;;;2.50;99.90;;;;;;2041332;28;20035;-77
2023/01/25 02:02:26;;;;;;;36.80;19.92;;;2.50;99.90;;;;;;2046022;29;20023;-77
2023/01/25 02:03:28;;;;;;;37.10;19.88;;;2.50;99.90;;;;;;2041041;29;20050;-78
2023/01/25 02:04:29;;;;;;;37.63;20.65;;;2.50;99.90;;;;;;2043002;28;20159;-78
2023/01/25 02:05:49;;;;;;;34.70;19.20;;;2.50;99.90;;;;;;2043020;28;20023;-78
2023/01/25 02:06:58;;;;;;;39.80;21.00;;;2.50;99.90;;;;;;2042614;28;20063;-79
2023/01/25 02:08:02;;;;;;;35.25;19.17;;;2.50;99.90;;;;;;2038370;29;20395;-78
2023/01/25 02:09:02;;;;;;;34.92;19.55;;;2.50;99.90;;;;;;2043501;28;20034;-80
2023/01/25 02:10:10;;;;;;;33.53;18.95;;;2.40;99.90;;;;;;2030689;29;20114;-78
2023/01/25 02:11:12;;;;;;;34.63;18.80;;;2.40;99.90;;;;;;2036460;29;20090;-78
2023/01/25 02:12:13;;;;;;;33.33;19.17;;;2.40;99.90;;;;;;2039172;29;20024;-78
2023/01/25 02:13:14;;;;;;;33.65;19.65;;;2.40;99.90;;;;;;2037092;29;20035;-78
2023/01/25 02:14:16;;;;;;;35.38;19.70;;;2.50;99.90;;;;;;2027209;29;20056;-78
2023/01/25 02:15:16;;;;;;;37.30;19.33;;;2.50;99.90;;;;;;2027799;29;20084;-80
2023/01/25 02:16:22;;;;;;;37.17;19.83;;;2.50;99.90;;;;;;2035179;29;20023;-79
2023/01/25 02:17:33;;;;;;;39.92;20.42;;;2.50;99.90;;;;;;2037608;29;20062;-77
2023/01/25 02:18:33;;;;;;;43.05;21.10;;;2.50;99.90;;;;;;2035994;29;20070;-78
2023/01/25 02:19:48;;;;;;;37.78;19.65;;;2.50;99.90;;;;;;2045422;29;20038;-79
2023/01/25 02:20:54;;;;;;;41.30;20.33;;;2.50;99.90;;;;;;2036986;29;20036;-78
2023/01/25 02:21:57;;;;;;;42.08;20.33;;;2.50;99.90;;;;;;2040712;29;20038;-80
2023/01/25 02:23:10;;;;;;;39.00;20.90;;;2.50;99.90;;;;;;2050715;29;20037;-79
2023/01/25 02:24:27;;;;;;;34.60;19.08;;;2.50;99.90;;;;;;2040888;29;20298;-78
2023/01/25 02:25:28;;;;;;;40.25;19.42;;;2.50;99.90;;;;;;2036002;29;20106;-78
2023/01/25 02:26:30;;;;;;;36.05;19.55;;;2.50;99.90;;;;;;2049416;29;20031;-79
2023/01/25 02:27:32;;;;;;;34.70;18.30;;;2.50;99.90;;;;;;2035489;29;20024;-74
2023/01/25 02:28:38;;;;;;;35.70;18.88;;;2.50;99.90;;;;;;2035215;29;20046;-75
2023/01/25 02:29:40;;;;;;;34.30;18.30;;;2.40;99.90;;;;;;2043784;29;20046;-75
2023/01/25 02:30:41;;;;;;;35.25;18.73;;;2.40;99.90;;;;;;2043777;28;20053;-75
2023/01/25 02:31:46;;;;;;;33.08;17.80;;;2.40;99.90;;;;;;2033167;29;20076;-75
2023/01/25 02:32:46;;;;;;;33.65;17.75;;;2.50;99.90;;;;;;2032445;29;20448;-74
2023/01/25 02:33:47;;;;;;;34.00;18.25;;;2.40;99.90;;;;;;2041052;29;20457;-75
2023/01/25 02:34:48;;;;;;;35.17;18.63;;;2.40;99.90;;;;;;2034915;29;20032;-75
2023/01/25 02:36:05;;;;;;;31.98;17.75;;;2.40;99.90;;;;;;2036828;29;20325;-75
2023/01/25 02:37:12;;;;;;;35.85;18.05;;;2.40;99.90;;;;;;2034959;29;20402;-74
2023/01/25 02:38:16;;;;;;;34.30;18.55;;;2.40;99.90;;;;;;2035694;29;20027;-74
2023/01/25 02:39:17;;;;;;;40.72;20.90;;;2.40;99.90;;;;;;2041793;29;20114;-75
2023/01/25 02:40:18;;;;;;;43.33;20.90;;;2.40;99.90;;;;;;2042826;29;20470;-74
2023/01/25 02:41:35;;;;;;;44.55;22.17;;;2.40;99.90;;;;;;2042784;28;20039;-75
2023/01/25 02:42:36;;;;;;;46.13;22.45;;;2.40;99.90;;;;;;2042784;28;20118;-74
2023/01/25 02:43:38;;;;;;;43.17;22.17;;;2.40;99.90;;;;;;2034861;29;20134;-76
2023/01/25 02:44:41;;;;;;;41.90;21.38;;;2.40;99.90;;;;;;2034185;29;20760;-75
2023/01/25 02:45:44;;;;;;;40.38;21.73;;;2.40;99.90;;;;;;2041706;29;20744;-75
2023/01/25 02:46:46;;;;;;;37.25;20.25;;;2.40;99.90;;;;;;2036609;29;20027;-76
2023/01/25 02:47:47;;;;;;;40.97;21.83;;;2.40;99.90;;;;;;2034773;29;20036;-76
2023/01/25 02:48:48;;;;;;;40.35;21.88;;;2.40;99.90;;;;;;2034966;29;20079;-76
2023/01/25 02:49:48;;;;;;;39.10;21.52;;;2.40;99.90;;;;;;2034675;29;20027;-74
2023/01/25 02:50:49;;;;;;;36.70;20.90;;;2.40;99.90;;;;;;2036376;29;20098;-74
2023/01/25 02:51:56;;;;;;;36.92;20.77;;;2.40;99.90;;;;;;2034765;29;20546;-75
2023/01/25 02:52:57;;;;;;;38.55;21.13;;;2.40;99.90;;;;;;2034507;29;20042;-75
2023/01/25 02:53:58;;;;;;;39.35;21.27;;;2.40;99.90;;;;;;2034727;29;20115;-75
2023/01/25 02:54:59;;;;;;;38.10;20.67;;;2.40;99.90;;;;;;2039828;28;20023;-76
2023/01/25 02:55:59;;;;;;;39.58;21.35;;;2.40;99.90;;;;;;2039834;28;20386;-75
2023/01/25 02:57:00;;;;;;;38.80;21.65;;;2.40;99.90;;;;;;2039846;28;20122;-76
2023/01/25 02:58:07;;;;;;;38.80;21.33;;;2.40;99.90;;;;;;2034414;29;20051;-76
2023/01/25 02:59:10;;;;;;;37.75;21.52;;;2.40;99.90;;;;;;2034842;29;20059;-75
2023/01/25 03:00:11;;;;;;;37.90;21.70;;;2.40;99.90;;;;;;2038726;29;20075;-76
2023/01/25 03:01:12;;;;;;;38.45;21.40;;;2.40;99.90;;;;;;2043875;29;20075;-76
2023/01/25 03:02:14;;;;;;;37.30;20.80;;;2.40;99.90;;;;;;2043802;29;20033;-75
2023/01/25 03:03:16;;;;;;;40.58;21.33;;;2.40;99.90;;;;;;2040624;29;20047;-75
2023/01/25 03:04:16;;;;;;;37.13;20.95;;;2.40;99.90;;;;;;2034683;29;20035;-75
2023/01/25 03:05:17;;;;;;;36.67;20.83;;;2.40;99.90;;;;;;2034499;29;20032;-75
2023/01/25 03:06:18;;;;;;;35.45;19.63;;;2.40;99.90;;;;;;2036117;29;20747;-75
2023/01/25 03:07:19;;;;;;;41.08;21.88;;;2.40;99.90;;;;;;2043922;28;20035;-75
2023/01/25 03:08:19;;;;;;;36.45;20.10;;;2.30;99.90;;;;;;2042195;28;20095;-75
2023/01/25 03:09:22;;;;;;;39.30;20.30;;;2.40;99.90;;;;;;2029909;29;20051;-75
2023/01/25 03:10:24;;;;;;;35.13;19.73;;;2.30;99.90;;;;;;2026861;29;20036;-73
2023/01/25 03:11:26;;;;;;;35.33;19.45;;;2.30;99.90;;;;;;2040025;28;20034;-75
2023/01/25 03:12:27;;;;;;;33.95;19.05;;;2.30;99.90;;;;;;2027137;29;20042;-75
2023/01/25 03:13:28;;;;;;;33.83;19.30;;;2.40;99.90;;;;;;2025141;29;20044;-75
2023/01/25 03:14:29;;;;;;;34.70;19.27;;;2.30;99.90;;;;;;2033473;29;20817;-74
2023/01/25 03:15:30;;;;;;;37.03;19.42;;;2.40;99.90;;;;;;2028688;29;20044;-75
2023/01/25 03:16:31;;;;;;;34.50;18.95;;;2.40;99.90;;;;;;2022349;29;20028;-75
2023/01/25 03:17:32;;;;;;;36.10;19.58;;;2.40;99.90;;;;;;2034214;29;20040;-75
2023/01/25 03:18:33;;;;;;;33.05;18.88;;;2.40;99.90;;;;;;2041964;29;20106;-75
2023/01/25 03:19:34;;;;;;;35.25;19.73;;;2.40;99.90;;;;;;2042390;28;20651;-75
2023/01/25 03:20:35;;;;;;;36.92;19.88;;;2.40;99.90;;;;;;2034237;29;20030;-75
2023/01/25 03:21:36;;;;;;;38.08;20.63;;;2.40;99.90;;;;;;2034525;29;20495;-74
2023/01/25 03:22:37;;;;;;;39.85;21.13;;;2.40;99.90;;;;;;2031924;29;20038;-75
2023/01/25 03:23:39;;;;;;;35.15;20.02;;;2.40;99.90;;;;;;2034028;29;20095;-75
2023/01/25 03:24:40;;;;;;;35.55;19.73;;;2.40;99.90;;;;;;2026235;29;20115;-74
2023/01/25 03:25:41;;;;;;;36.28;20.75;;;2.40;99.90;;;;;;2026576;29;20180;-74
2023/01/25 03:28:15;;;;;;;39.60;20.52;;;2.40;99.90;;;;;;2033504;29;20141;-74
2023/01/25 03:29:15;;;;;;;39.13;21.40;;;2.40;99.90;;;;;;2026439;29;20153;-75
2023/01/25 03:30:19;;;;;;;36.00;20.15;;;2.40;99.90;;;;;;2022959;29;20560;-73
2023/01/25 03:31:19;;;;;;;37.80;20.85;;;2.40;99.90;;;;;;2036140;29;20044;-76
2023/01/25 03:32:20;;;;;;;36.58;20.20;;;2.40;99.90;;;;;;2034210;29;20032;-74
2023/01/25 03:33:20;;;;;;;39.33;20.80;;;2.40;99.90;;;;;;2034096;29;20115;-76
2023/01/25 03:34:21;;;;;;;37.92;21.30;;;2.40;99.90;;;;;;2041993;29;20443;-74
2023/01/25 03:35:21;;;;;;;39.00;21.27;;;2.40;99.90;;;;;;2035575;29;20621;-76
2023/01/25 03:36:22;;;;;;;40.17;22.05;;;2.40;99.90;;;;;;2034272;29;20507;-77
2023/01/25 03:37:26;;;;;;;38.13;20.75;;;2.40;99.90;;;;;;2034187;29;20145;-75
2023/01/25 03:38:26;;;;;;;38.85;21.00;;;2.40;99.90;;;;;;2034729;29;20526;-75
2023/01/25 03:39:27;;;;;;;39.35;21.85;;;2.40;99.90;;;;;;2042155;29;20062;-76
2023/01/25 03:40:28;;;;;;;39.05;21.33;;;2.50;99.90;;;;;;2044577;29;20035;-74
2023/01/25 03:41:28;;;;;;;38.42;21.67;;;2.50;99.90;;;;;;2042637;29;20038;-74
2023/01/25 03:42:32;;;;;;;39.65;21.42;;;2.40;99.90;;;;;;2033866;29;20130;-74
2023/01/25 03:43:33;;;;;;;37.90;20.88;;;2.50;99.90;;;;;;2034066;29;20031;-74
2023/01/25 03:44:34;;;;;;;40.53;21.80;;;2.50;99.90;;;;;;2033357;29;20039;-75
2023/01/25 03:45:35;;;;;;;40.83;21.60;;;2.40;99.90;;;;;;2027987;29;20035;-75
2023/01/25 03:46:37;;;;;;;36.92;21.25;;;2.50;99.90;;;;;;2026229;29;20036;-75
2023/01/25 03:47:40;;;;;;;36.15;20.70;;;2.50;99.90;;;;;;2034562;29;20040;-74
2023/01/25 03:48:42;;;;;;;35.08;19.38;;;2.40;99.90;;;;;;2034258;29;20099;-74
2023/01/25 03:49:43;;;;;;;34.10;19.35;;;2.40;99.90;;;;;;2033910;29;20210;-75
2023/01/25 03:50:57;;;;;;;36.95;19.85;;;2.40;99.90;;;;;;2041980;29;20576;-75
2023/01/25 03:51:59;;;;;;;37.47;20.20;;;2.40;99.90;;;;;;2028012;29;20500;-73
2023/01/25 03:53:18;;;;;;;38.65;20.30;;;2.40;99.90;;;;;;2038797;29;20050;-76
2023/01/25 03:54:19;;;;;;;33.92;19.13;;;2.40;99.90;;;;;;2039651;28;20039;-75
2023/01/25 03:55:20;;;;;;;35.50;19.52;;;2.40;99.90;;;;;;2035896;29;20669;-76
2023/01/25 03:56:21;;;;;;;37.50;20.77;;;2.40;99.90;;;;;;2035950;29;20027;-74
2023/01/25 03:57:30;;;;;;;34.80;19.58;;;2.40;99.90;;;;;;2031854;29;20317;-75
2023/01/25 03:58:37;;;;;;;35.50;19.48;;;2.40;99.90;;;;;;2031977;29;20095;-75
2023/01/25 03:59:38;;;;;;;34.67;18.90;;;2.40;99.90;;;;;;2035980;29;20032;-74
2023/01/25 04:00:39;;;;;;;38.03;20.70;;;2.40;99.90;;;;;;2033736;29;20103;-75
2023/01/25 04:01:39;;;;;;;38.40;21.08;;;2.40;99.90;;;;;;2033788;29;20046;-75
2023/01/25 04:02:40;;;;;;;38.10;20.35;;;2.40;99.90;;;;;;2026181;29;20028;-75
2023/01/25 04:03:42;;;;;;;36.85;20.70;;;2.40;99.90;;;;;;2028041;29;20032;-74
2023/01/25 04:04:44;;;;;;;37.40;20.58;;;2.40;99.90;;;;;;2026152;29;20032;-75
2023/01/25 04:05:45;;;;;;;39.67;20.48;;;2.40;99.90;;;;;;2025901;29;20028;-75
2023/01/25 04:06:46;;;;;;;38.45;21.23;;;2.40;99.90;;;;;;2038182;29;20095;-74
2023/01/25 04:07:47;;;;;;;37.80;21.08;;;2.40;99.90;;;;;;2034084;29;20183;-74
2023/01/25 04:08:50;;;;;;;40.05;21.20;;;2.40;99.90;;;;;;2032182;29;20083;-74
2023/01/25 04:09:52;;;;;;;36.78;20.00;;;2.40;99.90;;;;;;2026228;29;20036;-74
2023/01/25 04:10:55;;;;;;;35.40;19.90;;;2.40;99.90;;;;;;2033889;29;20027;-75
2023/01/25 04:11:56;;;;;;;35.95;19.73;;;2.40;99.90;;;;;;2041906;28;20066;-76
2023/01/25 04:12:57;;;;;;;39.63;20.63;;;2.40;99.90;;;;;;2043577;29;20211;-74
2023/01/25 04:13:57;;;;;;;38.47;21.30;;;2.40;99.90;;;;;;2041964;29;20101;-74
2023/01/25 04:15:01;;;;;;;42.03;22.20;;;2.30;99.90;;;;;;2034099;29;20456;-74
2023/01/25 04:16:08;;;;;;;38.20;21.35;;;2.40;99.90;;;;;;2034116;29;20411;-74
2023/01/25 04:17:32;;;;;;;39.95;20.63;;;2.40;99.90;;;;;;2031208;29;20036;-76
2023/01/25 04:18:37;;;;;;;36.55;19.92;;;2.40;99.90;;;;;;2028324;29;20039;-75
2023/01/25 04:19:37;;;;;;;39.88;20.95;;;2.40;99.90;;;;;;2031272;29;20091;-75
2023/01/25 04:20:41;;;;;;;38.38;21.42;;;2.40;99.90;;;;;;2041382;28;20057;-75
2023/01/25 04:21:41;;;;;;;38.45;20.92;;;2.40;99.90;;;;;;2039505;29;20031;-75
2023/01/25 04:22:42;;;;;;;39.00;21.27;;;2.40;99.90;;;;;;2035780;29;20023;-76
2023/01/25 04:23:43;;;;;;;38.17;21.10;;;2.40;99.90;;;;;;2035607;29;20031;-76
2023/01/25 04:24:43;;;;;;;37.33;20.70;;;2.40;99.90;;;;;;2029645;29;20527;-75
2023/01/25 04:25:55;;;;;;;38.08;20.63;;;2.40;99.90;;;;;;2033746;29;20079;-75
2023/01/25 04:26:56;;;;;;;37.85;19.80;;;2.30;99.90;;;;;;2033844;29;20161;-76
2023/01/25 04:27:57;;;;;;;40.10;22.00;;;2.30;99.90;;;;;;2026104;29;20535;-75
2023/01/25 04:28:57;;;;;;;40.03;21.63;;;2.30;99.90;;;;;;2035535;29;20111;-75
2023/01/25 04:29:58;;;;;;;40.28;21.65;;;2.30;99.90;;;;;;2033780;29;20039;-78
2023/01/25 04:31:02;;;;;;;41.63;22.33;;;2.30;99.90;;;;;;2033752;29;20096;-75
2023/01/25 04:32:08;;;;;;;36.60;21.00;;;2.30;99.90;;;;;;2041636;29;20527;-75
2023/01/25 04:33:10;;;;;;;34.53;20.27;;;2.30;99.90;;;;;;2041772;28;20023;-74
2023/01/25 04:34:11;;;;;;;34.15;19.45;;;2.30;99.90;;;;;;2041477;29;20120;-75
2023/01/25 04:35:12;;;;;;;35.03;19.40;;;2.30;99.90;;;;;;2043792;28;20035;-75
2023/01/25 04:36:12;;;;;;;36.05;18.92;;;2.30;99.90;;;;;;2041684;28;20234;-75
2023/01/25 04:37:14;;;;;;;34.78;19.08;;;2.30;99.90;;;;;;2025939;29;20032;-74
2023/01/25 04:38:27;;;;;;;32.58;17.73;;;2.40;99.90;;;;;;2029623;29;20068;-75
2023/01/25 04:39:28;;;;;;;31.52;17.48;;;2.40;99.90;;;;;;2041892;28;20203;-74
2023/01/25 04:40:28;;;;;;;30.60;17.33;;;2.30;99.90;;;;;;2043533;29;20030;-76
2023/01/25 04:41:29;;;;;;;32.88;17.42;;;2.40;99.90;;;;;;2044267;29;20080;-75
2023/01/25 04:42:31;;;;;;;30.45;16.92;;;2.30;99.90;;;;;;2034441;29;20047;-74
2023/01/25 04:43:32;;;;;;;29.70;15.88;;;2.30;99.90;;;;;;2026474;29;20056;-75
2023/01/25 04:44:39;;;;;;;29.40;16.30;;;2.30;99.90;;;;;;2030649;29;20031;-77
2023/01/25 04:45:39;;;;;;;30.02;16.90;;;2.30;99.90;;;;;;2042460;28;20082;-75
2023/01/25 04:46:47;;;;;;;28.48;16.25;;;2.30;99.90;;;;;;2044766;29;20028;-74
2023/01/25 04:47:49;;;;;;;30.92;16.88;;;2.30;99.90;;;;;;2030516;29;20126;-77
2023/01/25 04:48:50;;;;;;;34.60;17.83;;;2.30;99.90;;;;;;2019850;29;20040;-75
2023/01/25 04:49:51;;;;;;;31.85;17.80;;;2.40;99.90;;;;;;2026960;29;20034;-76
2023/01/25 04:50:56;;;;;;;31.90;18.25;;;2.40;99.90;;;;;;2031121;29;20036;-76
2023/01/25 04:51:57;;;;;;;32.53;18.65;;;2.40;99.90;;;;;;2036613;29;20076;-75
2023/01/25 04:52:58;;;;;;;32.53;18.25;;;2.40;99.90;;;;;;2028671;29;20127;-75
2023/01/25 04:54:01;;;;;;;33.50;18.77;;;2.40;99.90;;;;;;2041260;28;20031;-76
2023/01/25 04:55:03;;;;;;;31.65;18.55;;;2.40;99.90;;;;;;2042683;28;20173;-77
2023/01/25 04:56:08;;;;;;;31.02;18.42;;;2.40;99.90;;;;;;2041988;29;20122;-76
2023/01/25 04:57:17;;;;;;;33.67;18.70;;;2.40;99.90;;;;;;2042655;29;20039;-74
2023/01/25 04:58:23;;;;;;;32.92;18.70;;;2.40;99.90;;;;;;2042248;29;20430;-75
2023/01/25 04:59:25;;;;;;;34.10;18.67;;;2.40;99.90;;;;;;2042598;28;20556;-74
2023/01/25 05:00:27;;;;;;;33.47;18.92;;;2.40;99.90;;;;;;2044454;29;20506;-75
2023/01/25 05:01:28;;;;;;;36.58;19.88;;;2.40;99.90;;;;;;2036738;28;20040;-77
2023/01/25 05:02:28;;;;;;;34.55;19.45;;;2.40;99.90;;;;;;2042350;28;20138;-75
2023/01/25 05:03:29;;;;;;;31.80;18.95;;;2.40;99.90;;;;;;2042584;28;20036;-76
2023/01/25 05:04:30;;;;;;;33.58;18.92;;;2.40;99.90;;;;;;2036678;29;20770;-75
2023/01/25 05:05:30;;;;;;;34.67;18.92;;;2.40;99.90;;;;;;2033962;29;20369;-75
2023/01/25 05:06:33;;;;;;;32.53;18.35;;;2.40;99.90;;;;;;2040291;29;20042;-76
2023/01/25 05:07:34;;;;;;;31.42;17.60;;;2.30;99.90;;;;;;2037485;28;20510;-75
2023/01/25 05:08:35;;;;;;;31.38;17.38;;;2.30;99.90;;;;;;2041793;28;20135;-74
2023/01/25 05:09:36;;;;;;;31.13;17.35;;;2.30;99.90;;;;;;2033625;29;20028;-75
2023/01/25 05:10:37;;;;;;;32.88;18.27;;;2.30;99.90;;;;;;2039045;29;20031;-74
2023/01/25 05:12:01;;;;;;;36.20;19.02;;;2.30;99.90;;;;;;2038897;29;20183;-76
2023/01/25 05:13:10;;;;;;;34.78;18.77;;;2.30;99.90;;;;;;2025860;29;20373;-76
2023/01/25 05:14:12;;;;;;;32.92;18.58;;;2.30;99.90;;;;;;2028742;29;20036;-76
2023/01/25 05:15:13;;;;;;;34.38;18.45;;;2.30;99.90;;;;;;2033678;29;20414;-77
2023/01/25 05:16:13;;;;;;;33.58;18.67;;;2.30;99.90;;;;;;2041436;29;20023;-76
2023/01/25 05:17:15;;;;;;;34.83;19.35;;;2.30;99.90;;;;;;2040891;28;20498;-75
2023/01/25 05:18:16;;;;;;;33.63;18.83;;;2.40;99.90;;;;;;2030265;29;20051;-77
2023/01/25 05:19:16;;;;;;;32.05;18.15;;;2.30;99.90;;;;;;2035079;29;20419;-76
2023/01/25 05:20:31;;;;;;;34.67;19.00;;;2.30;99.90;;;;;;2034508;29;20024;-75
2023/01/25 05:22:51;;;;;;;35.83;18.90;;;2.30;99.90;;;;;;2034051;28;20031;-75
2023/01/25 05:23:52;;;;;;;35.20;19.05;;;2.30;99.90;;;;;;2043235;28;20035;-75
2023/01/25 05:24:53;;;;;;;34.17;19.00;;;2.30;99.90;;;;;;2041419;28;20231;-75
2023/01/25 05:27:18;;;;;;;33.20;19.05;;;2.30;99.90;;;;;;2039145;28;20606;-74